Time;durP1;ratioP1;P1;durP2;ratioP2;P2;SDS_P1;SDS_P2;PMS_P1;PMS_P2;Temp;Humidity;BMP_temperature;BMP_pressure;BME280_temperature;BME280_humidity;BME280_pressure;Samples;Min_cycle;Max_cycle;Signal;HPM_P1;HPM_P2
2021/03/22 00:00:13;;;;;;;13.13;8.75;;;0.60;99.90;;;;;;5089343;28;20229;-69
2021/03/22 00:02:39;;;;;;;14.50;8.70;;;0.50;99.90;;;;;;5089349;28;20203;-67
2021/03/22 00:05:07;;;;;;;15.73;11.23;;;0.60;99.90;;;;;;5093680;28;20273;-68
2021/03/22 00:07:34;;;;;;;18.55;11.23;;;0.60;99.90;;;;;;5094029;28;20206;-67
2021/03/22 00:10:01;;;;;;;13.13;9.55;;;0.60;99.90;;;;;;5094105;28;20202;-68
2021/03/22 00:12:28;;;;;;;16.10;10.75;;;0.50;99.90;;;;;;5095396;28;20202;-68
2021/03/22 00:14:54;;;;;;;16.17;9.10;;;0.40;99.90;;;;;;5094927;28;20224;-68
2021/03/22 00:17:22;;;;;;;17.15;10.15;;;1.40;99.90;;;;;;5094919;28;20228;-68
2021/03/22 00:19:48;;;;;;;14.98;10.20;;;0.50;99.90;;;;;;5093634;28;20289;-68
2021/03/22 00:22:15;;;;;;;12.25;10.25;;;0.50;99.90;;;;;;5094766;28;20206;-68
2021/03/22 00:24:41;;;;;;;19.63;10.30;;;0.40;99.90;;;;;;5087427;28;20301;-68
2021/03/22 00:27:08;;;;;;;11.55;8.68;;;0.30;99.90;;;;;;5092516;28;20381;-68
2021/03/22 00:29:35;;;;;;;13.30;9.77;;;0.30;99.90;;;;;;5095006;28;20210;-67
2021/03/22 00:32:02;;;;;;;14.43;8.52;;;0.30;99.90;;;;;;5093982;28;20206;-68
2021/03/22 00:34:29;;;;;;;20.23;10.30;;;0.30;99.90;;;;;;5093944;28;20234;-68
2021/03/22 00:36:56;;;;;;;19.73;8.95;;;0.30;99.90;;;;;;5093500;28;20248;-68
2021/03/22 00:39:22;;;;;;;15.68;11.07;;;0.30;99.90;;;;;;5094375;28;20473;-68
2021/03/22 00:41:49;;;;;;;15.07;9.43;;;0.20;99.90;;;;;;5096698;28;20366;-67
2021/03/22 00:44:16;;;;;;;13.60;9.23;;;0.30;99.90;;;;;;5095253;28;20206;-69
2021/03/22 00:46:42;;;;;;;16.27;9.30;;;0.30;99.90;;;;;;5094460;28;20210;-67
2021/03/22 00:49:09;;;;;;;14.82;8.90;;;0.40;99.90;;;;;;5092802;28;20199;-68
2021/03/22 00:51:36;;;;;;;13.35;8.63;;;0.30;99.90;;;;;;5096071;28;20513;-68
2021/03/22 00:54:02;;;;;;;15.43;9.90;;;0.40;99.90;;;;;;5092267;28;20206;-67
2021/03/22 00:56:29;;;;;;;18.17;9.10;;;0.50;99.90;;;;;;5093270;28;20257;-67
2021/03/22 00:58:56;;;;;;;12.77;8.75;;;0.50;99.90;;;;;;5094554;28;20206;-69
2021/03/22 01:01:22;;;;;;;11.05;8.73;;;0.50;99.90;;;;;;5092339;28;20296;-68
2021/03/22 01:03:49;;;;;;;16.20;9.52;;;0.40;99.90;;;;;;5095970;28;20556;-69
2021/03/22 01:06:17;;;;;;;22.52;10.68;;;0.40;99.90;;;;;;5091625;28;20562;-69
2021/03/22 01:08:44;;;;;;;13.65;9.25;;;0.50;99.90;;;;;;5092155;28;20206;-69
2021/03/22 01:11:14;;;;;;;18.85;9.07;;;0.50;99.90;;;;;;5086736;28;20206;-67
2021/03/22 01:13:47;;;;;;;14.07;8.23;;;0.70;99.90;;;;;;5092234;28;20206;-67
2021/03/22 01:16:23;;;;;;;14.20;10.02;;;0.20;99.90;;;;;;5087786;28;20232;-67
2021/03/22 01:18:52;;;;;;;16.60;9.98;;;0.20;99.90;;;;;;5094875;28;20206;-67
2021/03/22 01:21:21;;;;;;;19.50;11.00;;;0.20;99.90;;;;;;5092217;28;20209;-68
2021/03/22 01:23:48;;;;;;;21.30;11.25;;;0.10;99.90;;;;;;5095102;28;20255;-67
2021/03/22 01:26:17;;;;;;;12.82;9.40;;;0.60;99.90;;;;;;5093508;28;20222;-67
2021/03/22 01:28:44;;;;;;;14.98;9.98;;;0.30;99.90;;;;;;5093179;28;20558;-67
2021/03/22 01:31:11;;;;;;;16.13;10.18;;;0.10;99.90;;;;;;5088392;28;20207;-67
2021/03/22 01:33:41;;;;;;;12.73;9.63;;;0.00;99.90;;;;;;5078201;28;20218;-68
2021/03/22 01:36:18;;;;;;;22.63;11.30;;;0.00;99.90;;;;;;5093601;28;20237;-67
2021/03/22 01:38:45;;;;;;;16.20;10.02;;;0.40;99.90;;;;;;5091947;28;20205;-68
2021/03/22 01:41:11;;;;;;;18.02;11.15;;;0.10;99.90;;;;;;5095901;28;20301;-67
2021/03/22 01:43:46;;;;;;;22.90;11.98;;;0.00;99.90;;;;;;5090900;28;20206;-68
2021/03/22 01:46:14;;;;;;;16.52;10.80;;;1.00;99.90;;;;;;5093220;28;20210;-67
2021/03/22 01:48:40;;;;;;;17.95;9.88;;;0.00;99.90;;;;;;5096630;28;20206;-67
2021/03/22 01:51:07;;;;;;;15.35;9.93;;;0.30;99.90;;;;;;5096721;28;20725;-68
2021/03/22 01:53:35;;;;;;;21.05;10.13;;;0.30;99.90;;;;;;5098886;28;20226;-68
2021/03/22 01:56:19;;;;;;;28.17;11.77;;;0.40;99.90;;;;;;5095768;28;20237;-67
2021/03/22 01:58:46;;;;;;;22.13;12.70;;;0.50;99.90;;;;;;5096316;28;20392;-68
2021/03/22 02:01:12;;;;;;;21.35;12.98;;;0.40;99.90;;;;;;5090376;28;20203;-67
2021/03/22 02:03:39;;;;;;;20.50;12.02;;;0.40;99.90;;;;;;5092327;28;20257;-68
2021/03/22 02:06:06;;;;;;;17.52;10.75;;;0.60;99.90;;;;;;5096262;28;20213;-66
2021/03/22 02:08:39;;;;;;;22.27;11.77;;;0.60;99.90;;;;;;5096976;28;20676;-67
2021/03/22 02:11:18;;;;;;;17.30;12.35;;;0.60;99.90;;;;;;5096803;28;20443;-68
2021/03/22 02:13:46;;;;;;;17.45;10.77;;;0.50;99.90;;;;;;5094512;28;20506;-67
2021/03/22 02:16:22;;;;;;;24.83;13.23;;;0.60;99.90;;;;;;5094412;28;20234;-67
2021/03/22 02:19:28;;;;;;;24.95;14.52;;;0.80;99.90;;;;;;5093106;28;20207;-67
2021/03/22 02:22:10;;;;;;;22.75;13.88;;;0.50;99.90;;;;;;5097888;28;20277;-66
2021/03/22 02:24:45;;;;;;;26.42;16.00;;;1.20;99.90;;;;;;5089038;28;20206;-67
2021/03/22 02:27:27;;;;;;;26.67;16.00;;;0.60;99.90;;;;;;5098021;28;20578;-66
2021/03/22 02:30:21;;;;;;;29.58;17.65;;;0.60;99.90;;;;;;5096362;28;20274;-66
2021/03/22 02:33:04;;;;;;;29.48;16.50;;;0.50;99.90;;;;;;5097219;28;20202;-65
2021/03/22 02:35:48;;;;;;;25.42;16.58;;;0.50;99.90;;;;;;5091882;28;20245;-67
2021/03/22 02:38:28;;;;;;;25.23;16.08;;;0.60;99.90;;;;;;5098934;28;20206;-66
2021/03/22 02:41:09;;;;;;;21.63;14.40;;;0.40;99.90;;;;;;5095050;28;20440;-66
2021/03/22 02:43:37;;;;;;;21.75;14.40;;;0.40;99.90;;;;;;5096633;28;20206;-66
2021/03/22 02:46:10;;;;;;;24.48;14.13;;;1.00;99.90;;;;;;5094446;28;20202;-66
2021/03/22 02:48:45;;;;;;;21.38;13.43;;;0.30;99.90;;;;;;5094017;28;20218;-66
2021/03/22 02:52:00;;;;;;;15.00;10.68;;;0.20;99.90;;;;;;5095730;28;20233;-66
2021/03/22 02:54:51;;;;;;;18.65;11.25;;;0.20;99.90;;;;;;5093905;28;20273;-67
2021/03/22 02:57:47;;;;;;;16.02;11.00;;;0.30;99.90;;;;;;5094726;28;20274;-66
2021/03/22 03:00:36;;;;;;;15.57;11.30;;;0.00;99.90;;;;;;5087261;28;20221;-65
2021/03/22 03:03:10;;;;;;;20.23;11.27;;;-0.10;99.90;;;;;;5095409;28;20202;-65
2021/03/22 03:05:37;;;;;;;20.80;11.07;;;-0.10;99.90;;;;;;5097702;28;20213;-66
2021/03/22 03:08:12;;;;;;;22.25;9.90;;;0.00;99.90;;;;;;5098678;28;20202;-64
2021/03/22 03:10:39;;;;;;;17.92;10.30;;;-0.10;99.90;;;;;;5096510;28;20213;-65
2021/03/22 03:13:06;;;;;;;13.68;10.38;;;0.10;99.90;;;;;;5087814;28;20441;-66
2021/03/22 03:15:36;;;;;;;16.77;11.32;;;0.00;99.90;;;;;;5090850;28;20226;-67
2021/03/22 03:18:03;;;;;;;21.20;11.40;;;-0.10;99.90;;;;;;5096867;28;20198;-65
2021/03/22 03:20:31;;;;;;;19.60;11.20;;;-0.10;99.90;;;;;;5096631;28;20202;-66
2021/03/22 03:22:59;;;;;;;20.80;12.02;;;0.00;99.90;;;;;;5092625;28;20406;-66
2021/03/22 03:25:27;;;;;;;29.10;12.68;;;0.10;99.90;;;;;;5098314;28;20235;-65
2021/03/22 03:27:54;;;;;;;19.98;12.23;;;0.10;99.90;;;;;;5097327;28;20233;-65
2021/03/22 03:30:33;;;;;;;23.90;12.50;;;0.30;99.90;;;;;;5092082;28;20202;-66
2021/03/22 03:33:00;;;;;;;21.17;12.75;;;0.50;99.90;;;;;;5095620;28;20198;-65
2021/03/22 03:35:32;;;;;;;19.98;10.52;;;0.70;99.90;;;;;;5089735;28;20242;-65
2021/03/22 03:37:58;;;;;;;23.90;14.60;;;1.00;99.90;;;;;;5092121;28;20829;-66
2021/03/22 03:40:31;;;;;;;18.50;12.43;;;0.80;99.90;;;;;;5085976;28;20538;-67
2021/03/22 03:42:58;;;;;;;21.73;14.18;;;0.70;99.90;;;;;;5090484;28;20206;-66
2021/03/22 03:45:27;;;;;;;20.67;12.45;;;0.70;99.90;;;;;;5091686;28;20328;-66
2021/03/22 03:48:13;;;;;;;18.33;12.23;;;0.60;99.90;;;;;;5096132;28;20202;-65
2021/03/22 03:50:41;;;;;;;21.58;13.50;;;0.60;99.90;;;;;;5095701;28;20369;-65
2021/03/22 03:53:09;;;;;;;28.45;14.10;;;0.60;99.90;;;;;;5096507;28;20234;-66
2021/03/22 03:55:36;;;;;;;17.13;12.23;;;0.50;99.90;;;;;;5091692;28;20232;-65
2021/03/22 03:58:03;;;;;;;23.88;14.38;;;0.50;99.90;;;;;;5095230;28;20511;-66
2021/03/22 04:00:35;;;;;;;20.90;14.20;;;0.60;99.90;;;;;;5094377;28;20213;-65
2021/03/22 04:03:31;;;;;;;25.42;14.48;;;0.60;99.90;;;;;;5093459;28;20206;-65
2021/03/22 04:06:04;;;;;;;21.15;14.57;;;0.50;99.90;;;;;;5094842;28;20216;-65
2021/03/22 04:08:33;;;;;;;24.95;13.43;;;0.50;99.90;;;;;;5093465;28;20203;-66
2021/03/22 04:11:02;;;;;;;18.38;13.30;;;0.40;99.90;;;;;;5096251;28;20779;-65
2021/03/22 04:13:31;;;;;;;20.55;12.77;;;1.00;99.90;;;;;;5091496;28;20213;-66
2021/03/22 04:15:59;;;;;;;20.38;13.82;;;0.50;99.90;;;;;;5094345;28;20241;-66
2021/03/22 04:18:34;;;;;;;22.85;13.75;;;0.50;99.90;;;;;;5094943;28;20197;-65
2021/03/22 04:21:01;;;;;;;21.25;12.73;;;0.30;99.90;;;;;;5092174;28;20206;-66
2021/03/22 04:23:28;;;;;;;21.95;12.80;;;0.50;99.90;;;;;;5090915;28;20214;-64
2021/03/22 04:25:54;;;;;;;21.52;14.05;;;0.70;99.90;;;;;;5094199;28;20482;-66
2021/03/22 04:28:21;;;;;;;21.63;15.00;;;0.50;99.90;;;;;;5092824;28;20504;-65
2021/03/22 04:30:47;;;;;;;22.70;14.05;;;0.20;99.90;;;;;;5094249;28;20400;-65
2021/03/22 04:33:14;;;;;;;15.77;13.55;;;0.10;99.90;;;;;;5090195;28;20213;-65
2021/03/22 04:35:41;;;;;;;20.05;14.77;;;0.20;99.90;;;;;;5091446;28;20291;-64
2021/03/22 04:38:08;;;;;;;19.95;14.55;;;0.30;99.90;;;;;;5088212;28;20212;-65
2021/03/22 04:40:34;;;;;;;18.23;13.57;;;0.50;99.90;;;;;;5087760;28;20207;-66
2021/03/22 04:43:01;;;;;;;16.55;14.05;;;0.90;99.90;;;;;;5088208;28;20249;-65
2021/03/22 04:45:30;;;;;;;24.02;15.75;;;0.70;99.90;;;;;;5089545;28;20540;-66
2021/03/22 04:47:57;;;;;;;23.65;15.38;;;0.90;99.90;;;;;;5089090;28;20209;-65
2021/03/22 04:50:26;;;;;;;21.65;13.98;;;1.10;99.90;;;;;;5093269;28;20443;-65
2021/03/22 04:52:53;;;;;;;18.67;14.23;;;1.10;99.90;;;;;;5095663;28;20202;-65
2021/03/22 04:55:22;;;;;;;21.95;14.38;;;1.30;99.90;;;;;;5090882;28;20233;-65
2021/03/22 04:57:49;;;;;;;17.63;13.15;;;1.30;99.90;;;;;;5093089;28;20534;-65
2021/03/22 05:00:21;;;;;;;21.95;14.02;;;1.40;99.90;;;;;;5087511;28;20459;-65
2021/03/22 05:02:48;;;;;;;19.73;12.60;;;1.30;99.90;;;;;;5093763;28;20206;-65
2021/03/22 05:05:15;;;;;;;17.85;12.00;;;1.40;99.90;;;;;;5094055;28;20408;-65
2021/03/22 05:07:42;;;;;;;20.08;13.15;;;1.50;99.90;;;;;;5090654;28;20207;-64
2021/03/22 05:10:11;;;;;;;16.00;12.50;;;1.60;99.90;;;;;;5096230;28;20530;-64
2021/03/22 05:12:37;;;;;;;20.42;12.85;;;1.60;99.90;;;;;;5092500;28;20270;-65
2021/03/22 05:15:04;;;;;;;16.63;11.68;;;1.70;99.90;;;;;;5090371;28;20269;-65
2021/03/22 05:17:31;;;;;;;23.48;13.88;;;1.60;99.90;;;;;;5092988;28;20470;-65
2021/03/22 05:19:58;;;;;;;12.70;9.90;;;1.60;99.90;;;;;;5093070;28;20193;-66
2021/03/22 05:22:24;;;;;;;20.63;12.35;;;1.60;99.90;;;;;;5093332;28;20416;-65
2021/03/22 05:24:51;;;;;;;20.17;11.10;;;1.70;99.90;;;;;;5094312;28;20441;-65
2021/03/22 05:27:17;;;;;;;16.65;10.93;;;1.70;99.90;;;;;;5098276;28;20229;-65
2021/03/22 05:29:44;;;;;;;14.43;10.80;;;1.70;99.90;;;;;;5090442;28;20206;-66
2021/03/22 05:32:32;;;;;;;12.30;11.00;;;1.60;99.90;;;;;;5097419;28;20209;-66
2021/03/22 05:35:00;;;;;;;15.60;11.45;;;1.40;99.90;;;;;;5095033;28;20299;-66
2021/03/22 05:37:27;;;;;;;23.88;12.20;;;1.30;99.90;;;;;;5097124;28;20458;-65
2021/03/22 05:40:00;;;;;;;20.30;11.70;;;1.20;99.90;;;;;;5084870;28;20229;-65
2021/03/22 05:42:58;;;;;;;17.90;11.57;;;1.20;99.90;;;;;;5096223;28;20202;-65
2021/03/22 05:45:54;;;;;;;14.75;9.77;;;1.20;99.90;;;;;;5087433;28;20213;-66
2021/03/22 05:48:49;;;;;;;14.10;8.30;;;1.10;99.90;;;;;;5097175;28;20213;-66
2021/03/22 05:51:36;;;;;;;10.90;8.68;;;1.10;99.90;;;;;;5095923;28;20243;-65
2021/03/22 05:54:48;;;;;;;19.38;11.35;;;1.10;99.90;;;;;;5090029;28;20266;-65
2021/03/22 05:57:58;;;;;;;12.93;8.55;;;1.20;99.90;;;;;;5091193;28;20206;-65
2021/03/22 06:01:06;;;;;;;15.23;7.57;;;1.30;99.90;;;;;;5050831;28;20219;-65
2021/03/22 06:03:54;;;;;;;10.45;7.45;;;1.30;99.90;;;;;;5094751;28;20206;-65
2021/03/22 06:06:45;;;;;;;13.52;8.00;;;1.40;99.90;;;;;;5097146;28;20206;-65
2021/03/22 06:09:37;;;;;;;13.05;9.30;;;1.50;99.90;;;;;;5096397;28;20504;-66
2021/03/22 06:12:22;;;;;;;12.48;9.32;;;1.60;99.90;;;;;;5094634;28;20204;-65
2021/03/22 06:15:27;;;;;;;12.75;9.65;;;1.70;99.90;;;;;;5095058;28;20472;-66
2021/03/22 06:18:07;;;;;;;18.73;11.77;;;1.90;99.90;;;;;;5098458;28;20206;-66
2021/03/22 06:20:40;;;;;;;12.27;8.45;;;2.60;99.90;;;;;;5099200;28;20265;-66
2021/03/22 06:23:38;;;;;;;13.50;7.90;;;2.00;99.90;;;;;;5096882;28;20239;-66
2021/03/22 06:26:34;;;;;;;10.10;8.55;;;2.00;99.90;;;;;;5096599;28;20277;-67
2021/03/22 06:29:16;;;;;;;13.90;9.05;;;2.00;99.80;;;;;;5097232;28;20548;-66
2021/03/22 06:31:47;;;;;;;15.38;8.77;;;2.20;99.30;;;;;;5093610;28;20199;-66
2021/03/22 06:34:39;;;;;;;12.05;7.68;;;2.20;99.00;;;;;;5095030;28;20204;-66
2021/03/22 06:37:14;;;;;;;11.27;8.25;;;2.30;98.70;;;;;;5097798;28;20246;-66
2021/03/22 06:39:50;;;;;;;11.57;9.07;;;2.50;98.50;;;;;;5092744;28;20213;-66
2021/03/22 06:42:26;;;;;;;11.77;7.57;;;2.70;98.30;;;;;;5095748;28;20225;-66
2021/03/22 06:45:02;;;;;;;12.07;6.88;;;2.80;97.60;;;;;;5094426;28;20205;-65
2021/03/22 06:47:34;;;;;;;10.57;8.10;;;2.90;97.10;;;;;;5087422;28;20202;-66
2021/03/22 06:50:28;;;;;;;11.18;7.13;;;3.00;97.30;;;;;;5089854;28;20191;-66
2021/03/22 06:52:59;;;;;;;13.32;9.00;;;3.00;96.60;;;;;;5097120;28;20515;-66
2021/03/22 06:55:41;;;;;;;14.82;8.70;;;3.10;97.10;;;;;;5089968;28;20576;-65
2021/03/22 06:58:27;;;;;;;11.00;7.35;;;3.20;96.50;;;;;;5078895;28;20293;-67
2021/03/22 07:01:13;;;;;;;9.57;7.40;;;3.40;96.20;;;;;;5096474;28;20241;-66
2021/03/22 07:03:43;;;;;;;14.80;7.50;;;3.40;96.10;;;;;;5092177;28;20321;-65
2021/03/22 07:06:22;;;;;;;12.13;8.40;;;3.50;96.10;;;;;;5075646;28;20244;-67
2021/03/22 07:08:49;;;;;;;17.85;7.18;;;3.60;95.30;;;;;;5067026;28;20521;-67
2021/03/22 07:11:25;;;;;;;14.45;7.88;;;3.70;95.40;;;;;;5094539;28;20231;-67
2021/03/22 07:14:01;;;;;;;12.07;6.93;;;3.70;95.50;;;;;;5098172;28;20266;-67
2021/03/22 07:16:31;;;;;;;16.20;8.05;;;3.80;95.50;;;;;;5095506;28;20558;-67
2021/03/22 07:19:20;;;;;;;14.07;6.78;;;3.90;95.20;;;;;;5098540;28;20567;-66
2021/03/22 07:21:55;;;;;;;12.63;7.70;;;3.90;94.90;;;;;;5086569;28;20566;-66
2021/03/22 07:24:52;;;;;;;11.30;6.97;;;3.90;95.10;;;;;;5092108;28;20211;-66
2021/03/22 07:27:34;;;;;;;9.30;6.10;;;3.90;94.80;;;;;;5079200;28;20239;-67
2021/03/22 07:30:19;;;;;;;12.43;5.57;;;4.00;94.40;;;;;;5081376;28;20274;-67
2021/03/22 07:33:11;;;;;;;9.05;6.60;;;4.00;94.70;;;;;;5084855;28;20506;-66
2021/03/22 07:35:47;;;;;;;10.68;5.90;;;4.10;94.40;;;;;;5076178;28;20246;-66
2021/03/22 07:38:53;;;;;;;11.05;6.22;;;4.10;94.10;;;;;;5082027;28;20262;-65
2021/03/22 07:41:30;;;;;;;12.40;5.55;;;4.50;93.60;;;;;;5075914;28;20225;-65
2021/03/22 07:44:34;;;;;;;12.38;6.28;;;4.90;92.70;;;;;;5077894;28;20216;-66
2021/03/22 07:47:03;;;;;;;9.25;5.88;;;5.20;92.40;;;;;;5077572;28;20216;-66
2021/03/22 07:49:51;;;;;;;8.30;5.60;;;5.10;92.10;;;;;;5078200;28;20283;-67
2021/03/22 07:52:41;;;;;;;9.88;5.45;;;4.80;92.20;;;;;;5077910;28;20204;-67
2021/03/22 07:55:18;;;;;;;10.93;5.97;;;4.80;92.40;;;;;;5086134;28;20431;-67
2021/03/22 07:57:54;;;;;;;7.95;6.32;;;4.80;92.40;;;;;;5076073;28;20205;-66
2021/03/22 08:00:52;;;;;;;9.35;5.70;;;5.20;92.10;;;;;;5085458;28;20587;-66
2021/03/22 08:03:24;;;;;;;8.18;5.45;;;5.30;91.90;;;;;;5089533;28;20511;-67
2021/03/22 08:06:13;;;;;;;11.80;5.75;;;5.30;92.00;;;;;;5090208;28;20216;-66
2021/03/22 08:09:16;;;;;;;10.18;6.85;;;5.20;92.30;;;;;;5094085;28;20201;-67
2021/03/22 08:12:00;;;;;;;14.90;6.60;;;5.10;92.50;;;;;;5093510;28;20556;-68
2021/03/22 08:14:37;;;;;;;11.07;6.40;;;5.60;91.80;;;;;;5092378;28;20240;-68
2021/03/22 08:17:22;;;;;;;9.48;6.10;;;5.70;90.90;;;;;;5088516;28;20419;-68
2021/03/22 08:20:12;;;;;;;11.80;7.30;;;5.80;91.30;;;;;;5077718;28;20395;-66
2021/03/22 08:23:02;;;;;;;12.13;6.15;;;6.00;90.70;;;;;;5089343;28;20233;-67
2021/03/22 08:25:58;;;;;;;9.98;6.15;;;5.80;91.20;;;;;;5062840;28;20282;-68
2021/03/22 08:28:37;;;;;;;6.68;6.03;;;6.10;90.50;;;;;;5082127;28;20238;-68
2021/03/22 08:31:54;;;;;;;6.47;4.75;;;6.70;88.50;;;;;;5083756;28;20501;-70
2021/03/22 08:34:46;;;;;;;7.47;5.45;;;6.90;87.50;;;;;;5086779;28;20190;-69
2021/03/22 08:37:42;;;;;;;11.00;5.70;;;8.90;82.40;;;;;;5092927;28;20627;-69
2021/03/22 08:40:40;;;;;;;10.18;5.60;;;11.10;71.70;;;;;;5088645;28;20225;-69
2021/03/22 08:43:50;;;;;;;11.32;7.00;;;10.80;71.30;;;;;;5092615;28;20195;-69
2021/03/22 08:46:40;;;;;;;9.57;6.15;;;9.30;75.40;;;;;;5077596;28;20229;-70
2021/03/22 08:49:39;;;;;;;9.52;5.80;;;8.60;78.20;;;;;;5090798;28;20203;-70
2021/03/22 08:52:06;;;;;;;7.50;5.57;;;9.10;76.30;;;;;;5087084;28;20203;-70
2021/03/22 08:54:36;;;;;;;9.27;5.28;;;8.60;78.00;;;;;;5088934;28;20213;-71
2021/03/22 08:57:26;;;;;;;11.63;7.07;;;8.00;81.50;;;;;;5088217;28;20241;-72
2021/03/22 09:00:13;;;;;;;6.40;5.50;;;8.20;79.80;;;;;;5085469;28;20207;-70
2021/03/22 09:02:52;;;;;;;8.57;5.93;;;8.70;81.00;;;;;;5090659;28;20206;-70
2021/03/22 09:05:23;;;;;;;7.03;5.95;;;10.10;73.40;;;;;;5093997;28;20206;-69
2021/03/22 09:07:50;;;;;;;12.98;7.22;;;10.10;75.80;;;;;;5092404;28;20861;-70
2021/03/22 09:10:41;;;;;;;7.82;6.47;;;9.70;76.10;;;;;;5090894;28;20281;-72
2021/03/22 09:13:24;;;;;;;10.88;6.95;;;9.10;79.50;;;;;;5092931;28;20206;-70
2021/03/22 09:16:22;;;;;;;10.80;7.07;;;11.50;70.80;;;;;;5094735;28;20584;-71
2021/03/22 09:19:21;;;;;;;9.85;6.65;;;11.60;65.80;;;;;;5074912;28;20240;-69
2021/03/22 09:22:00;;;;;;;9.68;8.20;;;10.30;70.90;;;;;;5085927;28;20203;-71
2021/03/22 09:24:40;;;;;;;9.65;7.55;;;10.20;73.80;;;;;;5088241;28;20207;-71
2021/03/22 09:27:16;;;;;;;10.50;7.15;;;10.90;69.90;;;;;;5090200;28;20392;-71
2021/03/22 09:29:52;;;;;;;11.52;7.30;;;10.50;71.90;;;;;;5089297;28;20207;-70
2021/03/22 09:32:28;;;;;;;7.82;7.03;;;10.10;73.40;;;;;;5077740;28;20215;-71
2021/03/22 09:34:57;;;;;;;8.82;7.20;;;10.30;74.10;;;;;;5077471;28;20195;-71
2021/03/22 09:38:01;;;;;;;10.68;7.15;;;9.90;73.40;;;;;;5084498;28;20251;-71
2021/03/22 09:40:28;;;;;;;14.90;9.02;;;9.50;75.40;;;;;;5074883;28;20958;-73
2021/03/22 09:43:14;;;;;;;9.07;8.07;;;7.70;79.10;;;;;;5036331;28;20290;-70
2021/03/22 09:45:54;;;;;;;9.45;7.40;;;8.10;79.50;;;;;;5083688;28;20355;-71
2021/03/22 09:48:31;;;;;;;14.60;8.90;;;8.50;80.90;;;;;;5090819;28;20202;-71
2021/03/22 09:51:00;;;;;;;8.60;7.80;;;8.70;80.20;;;;;;5089741;28;20209;-72
2021/03/22 09:53:34;;;;;;;8.30;7.22;;;8.70;81.80;;;;;;5086274;28;20504;-69
2021/03/22 09:56:05;;;;;;;9.35;7.85;;;8.40;82.60;;;;;;5088797;28;20261;-70
2021/03/22 09:58:44;;;;;;;11.73;8.32;;;7.60;83.50;;;;;;5091735;28;20202;-71
2021/03/22 10:01:25;;;;;;;9.20;8.15;;;7.70;85.30;;;;;;5081594;28;20218;-69
2021/03/22 10:04:16;;;;;;;10.52;7.70;;;7.90;86.80;;;;;;5089399;28;20331;-70
2021/03/22 10:07:06;;;;;;;10.05;6.97;;;8.00;84.10;;;;;;5095603;28;20496;-69
2021/03/22 10:09:52;;;;;;;10.38;7.57;;;7.70;84.70;;;;;;5091904;28;20206;-70
2021/03/22 10:12:35;;;;;;;12.00;6.47;;;7.70;84.60;;;;;;5094163;28;20209;-68
2021/03/22 10:15:25;;;;;;;12.15;6.45;;;7.80;83.40;;;;;;5094710;28;20198;-69
2021/03/22 10:18:07;;;;;;;10.25;5.80;;;7.10;86.20;;;;;;5087955;28;20255;-71
2021/03/22 10:20:39;;;;;;;7.38;6.63;;;7.30;89.40;;;;;;5081353;28;20211;-70
2021/03/22 10:23:15;;;;;;;6.35;5.70;;;7.80;86.40;;;;;;5080144;28;20276;-69
2021/03/22 10:25:44;;;;;;;9.50;5.85;;;8.10;83.90;;;;;;5079433;28;20537;-69
2021/03/22 10:28:24;;;;;;;10.00;5.65;;;8.30;83.00;;;;;;5096758;28;20794;-70
2021/03/22 10:30:58;;;;;;;11.57;5.80;;;7.50;81.40;;;;;;5097577;28;20202;-69
2021/03/22 10:33:26;;;;;;;10.15;5.97;;;6.50;86.50;;;;;;5095095;28;20202;-68
2021/03/22 10:36:00;;;;;;;12.30;5.82;;;6.80;87.90;;;;;;5079667;28;20257;-69
2021/03/22 10:38:36;;;;;;;5.53;4.78;;;7.30;86.40;;;;;;5082107;28;20255;-68
2021/03/22 10:41:21;;;;;;;8.88;5.00;;;7.60;84.10;;;;;;5083782;28;20222;-71
2021/03/22 10:43:56;;;;;;;5.20;4.60;;;7.50;85.10;;;;;;5091886;28;20221;-69
2021/03/22 10:46:32;;;;;;;6.90;5.25;;;7.20;85.10;;;;;;5084641;28;20203;-70
2021/03/22 10:49:09;;;;;;;9.85;6.03;;;7.20;86.20;;;;;;5096073;28;20202;-69
2021/03/22 10:51:39;;;;;;;7.40;5.28;;;7.40;86.50;;;;;;5084969;28;20217;-70
2021/03/22 10:54:11;;;;;;;10.30;5.78;;;6.90;86.50;;;;;;5088372;28;20213;-69
2021/03/22 10:56:40;;;;;;;6.65;5.57;;;6.50;87.90;;;;;;5081677;28;20542;-70
2021/03/22 10:59:18;;;;;;;9.98;5.90;;;6.30;86.80;;;;;;5088805;28;20222;-69
2021/03/22 11:01:46;;;;;;;5.72;5.13;;;6.20;86.30;;;;;;5081896;28;20209;-69
2021/03/22 11:04:19;;;;;;;7.32;5.72;;;6.10;85.70;;;;;;5087652;28;20493;-71
2021/03/22 11:06:48;;;;;;;9.90;7.78;;;5.90;87.20;;;;;;5085142;28;20241;-69
2021/03/22 11:09:20;;;;;;;10.18;6.30;;;6.20;89.00;;;;;;5080131;28;20377;-69
2021/03/22 11:11:54;;;;;;;7.65;6.05;;;6.50;88.30;;;;;;5090633;28;20531;-70
2021/03/22 11:14:26;;;;;;;11.48;6.53;;;6.60;87.30;;;;;;5093165;28;20206;-70
2021/03/22 11:17:03;;;;;;;11.18;6.20;;;6.50;86.50;;;;;;5097520;28;20279;-70
2021/03/22 11:19:44;;;;;;;6.85;6.03;;;6.70;87.50;;;;;;5081838;28;20270;-69
2021/03/22 11:22:31;;;;;;;7.07;6.45;;;6.90;85.70;;;;;;5078238;28;20202;-67
2021/03/22 11:25:00;;;;;;;10.93;6.57;;;7.20;84.40;;;;;;5091455;28;20211;-69
2021/03/22 11:27:55;;;;;;;9.18;6.63;;;6.90;85.00;;;;;;5078630;28;20222;-70
2021/03/22 11:30:40;;;;;;;8.27;6.38;;;6.50;88.90;;;;;;5086668;28;20521;-68
2021/03/22 11:33:17;;;;;;;7.50;6.80;;;6.60;86.40;;;;;;5089217;28;20213;-69
2021/03/22 11:35:46;;;;;;;9.82;6.57;;;6.60;87.40;;;;;;5091213;28;20242;-68
2021/03/22 11:38:47;;;;;;;11.27;6.80;;;6.50;87.60;;;;;;5091563;28;20202;-69
2021/03/22 11:41:34;;;;;;;17.65;7.93;;;6.80;88.10;;;;;;5071097;28;20222;-68
2021/03/22 11:44:25;;;;;;;24.55;7.63;;;7.00;85.80;;;;;;5084428;28;20202;-68
2021/03/22 11:47:15;;;;;;;7.72;6.07;;;6.60;87.80;;;;;;5092751;28;20198;-69
2021/03/22 11:49:46;;;;;;;15.07;8.52;;;6.80;86.90;;;;;;5094043;28;20206;-68
2021/03/22 11:52:24;;;;;;;13.60;7.22;;;7.30;84.80;;;;;;5092506;28;20202;-69
2021/03/22 11:54:56;;;;;;;8.02;7.22;;;7.70;82.80;;;;;;5081703;28;20501;-68
2021/03/22 11:57:29;;;;;;;11.98;9.43;;;7.90;81.10;;;;;;5091265;28;20461;-67
2021/03/22 12:00:05;;;;;;;12.95;9.20;;;8.00;79.90;;;;;;5082460;28;20297;-70
2021/03/22 12:02:47;;;;;;;8.32;5.82;;;7.90;80.20;;;;;;5088717;28;20197;-69
2021/03/22 12:05:35;;;;;;;8.38;6.57;;;7.50;76.60;;;;;;5089839;28;20198;-69
2021/03/22 12:08:34;;;;;;;5.45;4.95;;;7.40;79.20;;;;;;5086337;28;20202;-70
2021/03/22 12:11:03;;;;;;;5.47;4.97;;;7.50;79.20;;;;;;5089836;28;20284;-69
2021/03/22 12:13:31;;;;;;;6.95;5.00;;;7.80;76.40;;;;;;5092282;28;20522;-71
2021/03/22 12:16:00;;;;;;;6.13;4.75;;;7.80;76.70;;;;;;5093309;28;20226;-70
2021/03/22 12:18:33;;;;;;;4.10;3.83;;;7.60;70.70;;;;;;5086061;28;20512;-69
2021/03/22 12:21:03;;;;;;;4.95;4.53;;;7.40;70.00;;;;;;5094833;28;20202;-68
2021/03/22 12:23:29;;;;;;;5.93;4.47;;;7.50;72.10;;;;;;5091404;28;20473;-68
2021/03/22 12:25:56;;;;;;;6.07;5.38;;;7.70;71.80;;;;;;5086634;28;20248;-69
2021/03/22 12:28:26;;;;;;;5.28;4.75;;;7.40;75.40;;;;;;5087109;28;20518;-67
2021/03/22 12:30:58;;;;;;;6.47;5.97;;;7.30;74.10;;;;;;5082643;28;20213;-70
2021/03/22 12:33:28;;;;;;;5.97;4.88;;;7.20;74.20;;;;;;5081555;28;20210;-68
2021/03/22 12:35:57;;;;;;;6.15;5.70;;;7.20;72.20;;;;;;5095977;28;20321;-68
2021/03/22 12:38:25;;;;;;;5.63;4.40;;;7.30;72.40;;;;;;5080421;28;20396;-69
2021/03/22 12:40:52;;;;;;;9.75;6.07;;;7.30;69.30;;;;;;5089509;28;20511;-67
2021/03/22 12:43:33;;;;;;;8.93;4.75;;;7.30;71.30;;;;;;5083854;28;20222;-67
2021/03/22 12:46:01;;;;;;;4.90;4.50;;;7.30;70.80;;;;;;5087396;28;20484;-67
2021/03/22 12:48:28;;;;;;;4.72;4.13;;;7.20;71.70;;;;;;5081614;28;20213;-68
2021/03/22 12:50:55;;;;;;;4.47;4.07;;;6.30;69.40;;;;;;5077253;28;20203;-67
2021/03/22 12:53:22;;;;;;;6.47;5.38;;;7.00;72.30;;;;;;5082199;28;20447;-69
2021/03/22 12:55:49;;;;;;;4.90;3.72;;;7.00;72.20;;;;;;5085542;28;20233;-68
2021/03/22 12:58:25;;;;;;;7.70;4.43;;;7.10;68.80;;;;;;5092813;28;20485;-68
2021/03/22 13:00:54;;;;;;;10.55;5.65;;;7.10;69.80;;;;;;5092350;28;20201;-67
2021/03/22 13:03:24;;;;;;;4.35;3.80;;;7.30;70.70;;;;;;5088551;28;20206;-69
2021/03/22 13:05:54;;;;;;;4.53;4.07;;;7.70;66.80;;;;;;5076662;28;20210;-67
2021/03/22 13:08:23;;;;;;;4.18;3.97;;;8.20;58.70;;;;;;5094759;28;20422;-68
2021/03/22 13:10:50;;;;;;;4.65;4.25;;;8.20;59.20;;;;;;5090779;28;20210;-68
2021/03/22 13:13:17;;;;;;;4.20;3.90;;;8.40;57.30;;;;;;5083692;28;20213;-69
2021/03/22 13:15:45;;;;;;;3.92;3.72;;;8.30;59.20;;;;;;5087815;28;20237;-69
2021/03/22 13:18:18;;;;;;;4.25;3.95;;;8.00;60.30;;;;;;5076297;28;20519;-69
2021/03/22 13:20:48;;;;;;;5.40;4.88;;;7.50;61.30;;;;;;5084122;28;20562;-68
2021/03/22 13:23:17;;;;;;;4.22;3.72;;;7.50;62.30;;;;;;5080813;28;20198;-70
2021/03/22 13:25:46;;;;;;;4.80;4.35;;;7.70;64.30;;;;;;5087461;28;20244;-68
2021/03/22 13:28:26;;;;;;;5.38;4.88;;;7.50;66.60;;;;;;5084874;28;20431;-69
2021/03/22 13:30:55;;;;;;;6.43;4.72;;;7.40;65.60;;;;;;5090801;28;20513;-68